KFUL/FUL METAR and TAF weather

Enter ICAO airport designator
Station Type Date Time Source
KFUL METAR 2019/09/20 19:53 UTC NOAA

KFUL 201953Z VRB05KT 10SM CLR 28/12 A2986 RMK AO2 SLP110 T02780117


Station Type Date Time Source
KFUL Decoded METAR 2019/09/20 19:53 UTC NOAA

FULLERTON MUNICIPAL AIRPORT , CA, United States (KFUL) 33-52N 117-59W 35M
Sep 20, 2019 - 03:53 PM EDT / 2019.09.20 1953 UTC
Wind: Variable at 6 MPH (5 KT):0
Visibility: 10 mile(s):0
Sky conditions: clear
Temperature: 82.0 F (27.8 C)
Dew Point: 53.1 F (11.7 C)
Relative Humidity: 36%
Pressure (altimeter): 29.86 in. Hg (1011 hPa)
ob: KFUL 201953Z VRB05KT 10SM CLR 28/12 A2986 RMK AO2 SLP110 T02780117
cycle: 20

Station Type Date Time Source
KFUL TAF UTC NOAA

Error!

Example: see airport list